sensor_id;sensor_type;location;lat;lon;timestamp;P1;durP1;ratioP1;P2;durP2;ratioP2
8066;SDS011;4076;48.076;9.118;2022-09-06T00:00:37;8.00;;;4.40;;
8066;SDS011;4076;48.076;9.118;2022-09-06T00:03:03;7.07;;;3.53;;
8066;SDS011;4076;48.076;9.118;2022-09-06T00:05:30;9.03;;;5.10;;
8066;SDS011;4076;48.076;9.118;2022-09-06T00:08:00;6.77;;;4.20;;
8066;SDS011;4076;48.076;9.118;2022-09-06T00:10:27;9.30;;;5.37;;
8066;SDS011;4076;48.076;9.118;2022-09-06T00:12:53;9.40;;;5.10;;
8066;SDS011;4076;48.076;9.118;2022-09-06T00:15:19;8.67;;;5.20;;
8066;SDS011;4076;48.076;9.118;2022-09-06T00:17:46;8.30;;;5.20;;
8066;SDS011;4076;48.076;9.118;2022-09-06T00:20:12;8.60;;;5.73;;
8066;SDS011;4076;48.076;9.118;2022-09-06T00:22:38;7.50;;;5.30;;
8066;SDS011;4076;48.076;9.118;2022-09-06T00:25:04;8.17;;;4.90;;
8066;SDS011;4076;48.076;9.118;2022-09-06T00:27:31;8.97;;;5.20;;
8066;SDS011;4076;48.076;9.118;2022-09-06T00:29:57;9.90;;;5.50;;
8066;SDS011;4076;48.076;9.118;2022-09-06T00:32:22;9.03;;;5.73;;
8066;SDS011;4076;48.076;9.118;2022-09-06T00:34:48;7.13;;;4.03;;
8066;SDS011;4076;48.076;9.118;2022-09-06T00:37:14;8.37;;;4.87;;
8066;SDS011;4076;48.076;9.118;2022-09-06T00:39:39;7.80;;;5.10;;
8066;SDS011;4076;48.076;9.118;2022-09-06T00:42:08;11.20;;;6.10;;
8066;SDS011;4076;48.076;9.118;2022-09-06T00:44:35;10.10;;;5.33;;
8066;SDS011;4076;48.076;9.118;2022-09-06T00:47:01;8.03;;;4.80;;
8066;SDS011;4076;48.076;9.118;2022-09-06T00:49:28;8.87;;;5.27;;
8066;SDS011;4076;48.076;9.118;2022-09-06T00:52:16;10.10;;;6.43;;
8066;SDS011;4076;48.076;9.118;2022-09-06T00:54:43;8.47;;;5.43;;
8066;SDS011;4076;48.076;9.118;2022-09-06T00:57:10;9.03;;;4.77;;
8066;SDS011;4076;48.076;9.118;2022-09-06T00:59:37;12.83;;;5.10;;
8066;SDS011;4076;48.076;9.118;2022-09-06T01:02:05;8.10;;;4.80;;
8066;SDS011;4076;48.076;9.118;2022-09-06T01:04:33;8.10;;;4.23;;
8066;SDS011;4076;48.076;9.118;2022-09-06T01:15:07;9.17;;;5.43;;
8066;SDS011;4076;48.076;9.118;2022-09-06T01:17:47;7.87;;;4.90;;
8066;SDS011;4076;48.076;9.118;2022-09-06T01:25:44;8.30;;;5.00;;
8066;SDS011;4076;48.076;9.118;2022-09-06T01:28:39;9.33;;;5.67;;
8066;SDS011;4076;48.076;9.118;2022-09-06T01:36:34;8.13;;;5.10;;
8066;SDS011;4076;48.076;9.118;2022-09-06T01:39:16;9.90;;;5.73;;
8066;SDS011;4076;48.076;9.118;2022-09-06T01:41:48;10.40;;;4.80;;
8066;SDS011;4076;48.076;9.118;2022-09-06T01:44:15;8.43;;;5.60;;
8066;SDS011;4076;48.076;9.118;2022-09-06T01:46:49;8.27;;;5.17;;
8066;SDS011;4076;48.076;9.118;2022-09-06T01:49:32;9.80;;;7.27;;
8066;SDS011;4076;48.076;9.118;2022-09-06T01:52:11;10.10;;;5.10;;
8066;SDS011;4076;48.076;9.118;2022-09-06T01:55:12;9.20;;;5.50;;
8066;SDS011;4076;48.076;9.118;2022-09-06T02:01:04;12.23;;;7.27;;
8066;SDS011;4076;48.076;9.118;2022-09-06T02:04:00;7.60;;;4.43;;
8066;SDS011;4076;48.076;9.118;2022-09-06T02:06:41;7.00;;;4.30;;
8066;SDS011;4076;48.076;9.118;2022-09-06T02:09:16;8.70;;;5.53;;
8066;SDS011;4076;48.076;9.118;2022-09-06T02:11:49;10.43;;;6.20;;
8066;SDS011;4076;48.076;9.118;2022-09-06T02:14:19;9.47;;;5.30;;
8066;SDS011;4076;48.076;9.118;2022-09-06T02:16:51;7.90;;;4.50;;
8066;SDS011;4076;48.076;9.118;2022-09-06T02:19:32;7.80;;;4.10;;
8066;SDS011;4076;48.076;9.118;2022-09-06T02:21:59;9.03;;;5.03;;
8066;SDS011;4076;48.076;9.118;2022-09-06T02:24:30;10.77;;;5.70;;
8066;SDS011;4076;48.076;9.118;2022-09-06T02:27:01;7.23;;;4.47;;
8066;SDS011;4076;48.076;9.118;2022-09-06T02:29:27;9.40;;;4.90;;
8066;SDS011;4076;48.076;9.118;2022-09-06T02:31:54;8.93;;;5.80;;
8066;SDS011;4076;48.076;9.118;2022-09-06T02:34:27;8.37;;;5.27;;
8066;SDS011;4076;48.076;9.118;2022-09-06T02:36:53;8.67;;;5.33;;
8066;SDS011;4076;48.076;9.118;2022-09-06T02:39:19;9.17;;;5.20;;
8066;SDS011;4076;48.076;9.118;2022-09-06T02:41:45;9.00;;;5.20;;
8066;SDS011;4076;48.076;9.118;2022-09-06T02:44:12;8.07;;;5.10;;
8066;SDS011;4076;48.076;9.118;2022-09-06T02:46:38;8.43;;;4.90;;
8066;SDS011;4076;48.076;9.118;2022-09-06T02:49:04;9.40;;;4.90;;
8066;SDS011;4076;48.076;9.118;2022-09-06T02:51:30;7.73;;;4.83;;
8066;SDS011;4076;48.076;9.118;2022-09-06T02:54:01;6.80;;;4.00;;
8066;SDS011;4076;48.076;9.118;2022-09-06T02:56:27;12.27;;;4.50;;
8066;SDS011;4076;48.076;9.118;2022-09-06T02:58:53;12.20;;;6.30;;
8066;SDS011;4076;48.076;9.118;2022-09-06T03:01:18;8.07;;;5.17;;
8066;SDS011;4076;48.076;9.118;2022-09-06T03:03:44;10.97;;;5.23;;
8066;SDS011;4076;48.076;9.118;2022-09-06T03:06:09;9.10;;;5.53;;
8066;SDS011;4076;48.076;9.118;2022-09-06T03:08:35;8.53;;;5.60;;
8066;SDS011;4076;48.076;9.118;2022-09-06T03:11:01;8.30;;;4.97;;
8066;SDS011;4076;48.076;9.118;2022-09-06T03:13:26;5.93;;;3.90;;
8066;SDS011;4076;48.076;9.118;2022-09-06T03:15:56;8.27;;;4.87;;
8066;SDS011;4076;48.076;9.118;2022-09-06T03:18:23;9.57;;;4.27;;
8066;SDS011;4076;48.076;9.118;2022-09-06T03:20:50;9.17;;;5.23;;
8066;SDS011;4076;48.076;9.118;2022-09-06T03:23:16;9.67;;;5.00;;
8066;SDS011;4076;48.076;9.118;2022-09-06T03:25:43;8.03;;;5.33;;
8066;SDS011;4076;48.076;9.118;2022-09-06T03:28:09;9.33;;;4.53;;
8066;SDS011;4076;48.076;9.118;2022-09-06T03:30:35;10.27;;;4.63;;
8066;SDS011;4076;48.076;9.118;2022-09-06T03:33:00;8.30;;;4.73;;
8066;SDS011;4076;48.076;9.118;2022-09-06T03:35:26;7.40;;;4.70;;
8066;SDS011;4076;48.076;9.118;2022-09-06T03:37:52;8.57;;;5.33;;
8066;SDS011;4076;48.076;9.118;2022-09-06T03:40:18;8.93;;;4.50;;
8066;SDS011;4076;48.076;9.118;2022-09-06T03:42:43;7.37;;;4.00;;
8066;SDS011;4076;48.076;9.118;2022-09-06T03:45:10;9.63;;;4.27;;
8066;SDS011;4076;48.076;9.118;2022-09-06T03:47:36;9.77;;;6.00;;
8066;SDS011;4076;48.076;9.118;2022-09-06T03:50:02;9.07;;;5.53;;
8066;SDS011;4076;48.076;9.118;2022-09-06T03:52:28;8.53;;;4.70;;
8066;SDS011;4076;48.076;9.118;2022-09-06T03:54:54;7.80;;;4.77;;
8066;SDS011;4076;48.076;9.118;2022-09-06T03:57:19;8.43;;;4.80;;
8066;SDS011;4076;48.076;9.118;2022-09-06T03:59:45;8.53;;;5.67;;
8066;SDS011;4076;48.076;9.118;2022-09-06T04:02:10;7.97;;;4.90;;
8066;SDS011;4076;48.076;9.118;2022-09-06T04:04:36;6.77;;;3.67;;
8066;SDS011;4076;48.076;9.118;2022-09-06T04:07:02;8.57;;;5.30;;
8066;SDS011;4076;48.076;9.118;2022-09-06T04:09:27;7.00;;;4.50;;
8066;SDS011;4076;48.076;9.118;2022-09-06T04:11:53;6.63;;;3.80;;
8066;SDS011;4076;48.076;9.118;2022-09-06T04:14:18;8.93;;;5.27;;
8066;SDS011;4076;48.076;9.118;2022-09-06T04:16:44;7.23;;;4.60;;
8066;SDS011;4076;48.076;9.118;2022-09-06T04:19:10;6.17;;;3.97;;
8066;SDS011;4076;48.076;9.118;2022-09-06T04:21:35;9.63;;;5.03;;
8066;SDS011;4076;48.076;9.118;2022-09-06T04:24:01;8.50;;;4.37;;
8066;SDS011;4076;48.076;9.118;2022-09-06T04:26:26;7.43;;;4.50;;
8066;SDS011;4076;48.076;9.118;2022-09-06T04:28:52;6.23;;;3.63;;
8066;SDS011;4076;48.076;9.118;2022-09-06T04:31:18;7.77;;;4.30;;
8066;SDS011;4076;48.076;9.118;2022-09-06T04:33:43;7.90;;;5.43;;
8066;SDS011;4076;48.076;9.118;2022-09-06T04:36:09;8.00;;;4.93;;
8066;SDS011;4076;48.076;9.118;2022-09-06T04:38:40;6.60;;;4.43;;
8066;SDS011;4076;48.076;9.118;2022-09-06T04:41:07;6.30;;;3.23;;
8066;SDS011;4076;48.076;9.118;2022-09-06T04:43:35;7.00;;;3.90;;
8066;SDS011;4076;48.076;9.118;2022-09-06T04:46:01;7.50;;;4.30;;
8066;SDS011;4076;48.076;9.118;2022-09-06T04:48:36;8.60;;;5.10;;
8066;SDS011;4076;48.076;9.118;2022-09-06T04:51:02;10.33;;;5.97;;
8066;SDS011;4076;48.076;9.118;2022-09-06T04:53:27;10.10;;;6.07;;
8066;SDS011;4076;48.076;9.118;2022-09-06T04:55:55;7.10;;;4.27;;
8066;SDS011;4076;48.076;9.118;2022-09-06T04:58:22;7.43;;;4.67;;
8066;SDS011;4076;48.076;9.118;2022-09-06T05:00:47;8.13;;;5.67;;
8066;SDS011;4076;48.076;9.118;2022-09-06T05:03:13;8.77;;;5.20;;
8066;SDS011;4076;48.076;9.118;2022-09-06T05:05:38;12.20;;;6.30;;
8066;SDS011;4076;48.076;9.118;2022-09-06T05:08:04;8.60;;;5.60;;
8066;SDS011;4076;48.076;9.118;2022-09-06T05:10:29;9.20;;;5.23;;
8066;SDS011;4076;48.076;9.118;2022-09-06T05:12:55;12.57;;;7.03;;
8066;SDS011;4076;48.076;9.118;2022-09-06T05:15:21;11.53;;;6.63;;
8066;SDS011;4076;48.076;9.118;2022-09-06T05:17:47;12.23;;;9.00;;
8066;SDS011;4076;48.076;9.118;2022-09-06T05:20:13;13.93;;;7.83;;
8066;SDS011;4076;48.076;9.118;2022-09-06T05:22:39;8.70;;;6.47;;
8066;SDS011;4076;48.076;9.118;2022-09-06T05:25:05;9.70;;;6.27;;
8066;SDS011;4076;48.076;9.118;2022-09-06T05:27:32;12.10;;;5.57;;
8066;SDS011;4076;48.076;9.118;2022-09-06T05:29:57;8.30;;;5.50;;
8066;SDS011;4076;48.076;9.118;2022-09-06T05:32:23;9.50;;;6.17;;
8066;SDS011;4076;48.076;9.118;2022-09-06T05:34:49;7.70;;;5.03;;
8066;SDS011;4076;48.076;9.118;2022-09-06T05:37:14;7.80;;;4.57;;
8066;SDS011;4076;48.076;9.118;2022-09-06T05:39:40;7.97;;;4.60;;
8066;SDS011;4076;48.076;9.118;2022-09-06T05:42:06;9.87;;;7.17;;
8066;SDS011;4076;48.076;9.118;2022-09-06T05:44:34;9.07;;;4.67;;
8066;SDS011;4076;48.076;9.118;2022-09-06T05:47:01;8.23;;;5.20;;
8066;SDS011;4076;48.076;9.118;2022-09-06T05:49:28;9.97;;;5.87;;
8066;SDS011;4076;48.076;9.118;2022-09-06T05:51:54;7.30;;;4.93;;
8066;SDS011;4076;48.076;9.118;2022-09-06T05:54:20;10.77;;;4.77;;
8066;SDS011;4076;48.076;9.118;2022-09-06T05:56:45;8.47;;;4.97;;
8066;SDS011;4076;48.076;9.118;2022-09-06T05:59:11;9.07;;;5.17;;
8066;SDS011;4076;48.076;9.118;2022-09-06T06:01:44;6.53;;;3.70;;
8066;SDS011;4076;48.076;9.118;2022-09-06T06:04:17;8.23;;;4.67;;
8066;SDS011;4076;48.076;9.118;2022-09-06T06:06:44;9.50;;;6.57;;
8066;SDS011;4076;48.076;9.118;2022-09-06T06:09:11;9.50;;;5.20;;
8066;SDS011;4076;48.076;9.118;2022-09-06T06:11:37;7.40;;;4.77;;
8066;SDS011;4076;48.076;9.118;2022-09-06T06:14:06;7.80;;;4.70;;
8066;SDS011;4076;48.076;9.118;2022-09-06T06:16:32;7.70;;;4.30;;
8066;SDS011;4076;48.076;9.118;2022-09-06T06:18:58;7.77;;;4.50;;
8066;SDS011;4076;48.076;9.118;2022-09-06T06:21:25;10.70;;;5.20;;
8066;SDS011;4076;48.076;9.118;2022-09-06T06:23:53;9.47;;;5.73;;
8066;SDS011;4076;48.076;9.118;2022-09-06T06:26:20;6.97;;;4.20;;
8066;SDS011;4076;48.076;9.118;2022-09-06T06:28:46;7.67;;;4.60;;
8066;SDS011;4076;48.076;9.118;2022-09-06T06:31:13;7.43;;;4.57;;
8066;SDS011;4076;48.076;9.118;2022-09-06T06:33:39;11.23;;;7.33;;
8066;SDS011;4076;48.076;9.118;2022-09-06T06:36:27;8.47;;;4.70;;
8066;SDS011;4076;48.076;9.118;2022-09-06T06:38:54;7.97;;;4.93;;
8066;SDS011;4076;48.076;9.118;2022-09-06T06:41:21;8.53;;;5.13;;
8066;SDS011;4076;48.076;9.118;2022-09-06T06:43:55;8.50;;;5.77;;
8066;SDS011;4076;48.076;9.118;2022-09-06T06:46:26;9.30;;;5.50;;
8066;SDS011;4076;48.076;9.118;2022-09-06T06:48:53;9.13;;;5.10;;
8066;SDS011;4076;48.076;9.118;2022-09-06T06:51:20;9.27;;;5.07;;
8066;SDS011;4076;48.076;9.118;2022-09-06T06:53:47;8.23;;;4.93;;
8066;SDS011;4076;48.076;9.118;2022-09-06T06:56:17;8.30;;;4.73;;
8066;SDS011;4076;48.076;9.118;2022-09-06T06:58:45;7.53;;;4.63;;
8066;SDS011;4076;48.076;9.118;2022-09-06T07:01:13;8.40;;;5.40;;
8066;SDS011;4076;48.076;9.118;2022-09-06T07:03:39;8.33;;;4.80;;
8066;SDS011;4076;48.076;9.118;2022-09-06T07:06:05;8.30;;;4.83;;
8066;SDS011;4076;48.076;9.118;2022-09-06T07:08:31;8.40;;;4.20;;
8066;SDS011;4076;48.076;9.118;2022-09-06T07:10:57;9.20;;;5.00;;
8066;SDS011;4076;48.076;9.118;2022-09-06T07:13:23;9.50;;;6.03;;
8066;SDS011;4076;48.076;9.118;2022-09-06T07:15:49;8.57;;;5.67;;
8066;SDS011;4076;48.076;9.118;2022-09-06T07:18:15;10.20;;;5.20;;
8066;SDS011;4076;48.076;9.118;2022-09-06T07:20:41;9.00;;;4.70;;
8066;SDS011;4076;48.076;9.118;2022-09-06T07:23:07;8.20;;;5.70;;
8066;SDS011;4076;48.076;9.118;2022-09-06T07:25:33;11.80;;;6.70;;
8066;SDS011;4076;48.076;9.118;2022-09-06T07:27:59;8.70;;;5.50;;
8066;SDS011;4076;48.076;9.118;2022-09-06T07:30:27;8.30;;;5.50;;
8066;SDS011;4076;48.076;9.118;2022-09-06T07:32:55;9.53;;;5.07;;
8066;SDS011;4076;48.076;9.118;2022-09-06T07:35:22;8.40;;;4.80;;
8066;SDS011;4076;48.076;9.118;2022-09-06T07:37:51;9.93;;;5.00;;
8066;SDS011;4076;48.076;9.118;2022-09-06T07:40:17;8.77;;;5.13;;
8066;SDS011;4076;48.076;9.118;2022-09-06T07:42:43;8.50;;;4.50;;
8066;SDS011;4076;48.076;9.118;2022-09-06T07:45:08;7.87;;;4.30;;
8066;SDS011;4076;48.076;9.118;2022-09-06T07:47:34;8.40;;;5.27;;
8066;SDS011;4076;48.076;9.118;2022-09-06T07:50:00;7.27;;;4.80;;
8066;SDS011;4076;48.076;9.118;2022-09-06T07:52:25;7.53;;;5.10;;
8066;SDS011;4076;48.076;9.118;2022-09-06T07:54:51;10.17;;;4.80;;
8066;SDS011;4076;48.076;9.118;2022-09-06T07:57:17;7.73;;;5.33;;
8066;SDS011;4076;48.076;9.118;2022-09-06T07:59:43;9.93;;;5.60;;
8066;SDS011;4076;48.076;9.118;2022-09-06T08:02:08;7.13;;;5.77;;
8066;SDS011;4076;48.076;9.118;2022-09-06T08:04:34;8.13;;;5.10;;
8066;SDS011;4076;48.076;9.118;2022-09-06T08:06:59;6.77;;;5.50;;
8066;SDS011;4076;48.076;9.118;2022-09-06T08:09:26;7.70;;;6.90;;
8066;SDS011;4076;48.076;9.118;2022-09-06T08:11:51;8.80;;;7.93;;
8066;SDS011;4076;48.076;9.118;2022-09-06T08:14:17;12.17;;;11.33;;
8066;SDS011;4076;48.076;9.118;2022-09-06T08:16:43;12.23;;;11.43;;
8066;SDS011;4076;48.076;9.118;2022-09-06T08:19:09;21.23;;;20.13;;
8066;SDS011;4076;48.076;9.118;2022-09-06T08:21:36;24.37;;;22.97;;
8066;SDS011;4076;48.076;9.118;2022-09-06T08:24:06;25.87;;;24.67;;
8066;SDS011;4076;48.076;9.118;2022-09-06T08:26:34;27.13;;;25.83;;
8066;SDS011;4076;48.076;9.118;2022-09-06T08:29:04;33.80;;;32.13;;
8066;SDS011;4076;48.076;9.118;2022-09-06T08:31:32;35.20;;;33.60;;
8066;SDS011;4076;48.076;9.118;2022-09-06T08:33:59;27.97;;;26.57;;
8066;SDS011;4076;48.076;9.118;2022-09-06T08:36:25;28.10;;;26.70;;
8066;SDS011;4076;48.076;9.118;2022-09-06T08:38:54;25.43;;;24.03;;
8066;SDS011;4076;48.076;9.118;2022-09-06T08:41:25;30.90;;;29.30;;
8066;SDS011;4076;48.076;9.118;2022-09-06T08:43:58;33.10;;;31.50;;
8066;SDS011;4076;48.076;9.118;2022-09-06T08:46:35;27.27;;;25.83;;
8066;SDS011;4076;48.076;9.118;2022-09-06T08:49:02;24.63;;;23.43;;
8066;SDS011;4076;48.076;9.118;2022-09-06T08:54:08;22.63;;;21.33;;
8066;SDS011;4076;48.076;9.118;2022-09-06T08:56:47;22.60;;;21.50;;
8066;SDS011;4076;48.076;9.118;2022-09-06T08:59:36;22.77;;;21.57;;
8066;SDS011;4076;48.076;9.118;2022-09-06T09:02:17;20.40;;;19.23;;
8066;SDS011;4076;48.076;9.118;2022-09-06T09:05:03;20.53;;;19.17;;
8066;SDS011;4076;48.076;9.118;2022-09-06T09:10:11;17.10;;;16.07;;
8066;SDS011;4076;48.076;9.118;2022-09-06T09:12:46;22.70;;;21.40;;
8066;SDS011;4076;48.076;9.118;2022-09-06T09:15:14;21.93;;;20.53;;
8066;SDS011;4076;48.076;9.118;2022-09-06T09:17:41;26.67;;;25.27;;
8066;SDS011;4076;48.076;9.118;2022-09-06T09:20:08;24.23;;;22.90;;
8066;SDS011;4076;48.076;9.118;2022-09-06T09:22:35;24.67;;;23.33;;
8066;SDS011;4076;48.076;9.118;2022-09-06T09:25:02;29.90;;;28.50;;
8066;SDS011;4076;48.076;9.118;2022-09-06T09:27:29;21.00;;;19.80;;
8066;SDS011;4076;48.076;9.118;2022-09-06T09:29:58;19.30;;;18.20;;
8066;SDS011;4076;48.076;9.118;2022-09-06T09:37:44;25.23;;;23.97;;
8066;SDS011;4076;48.076;9.118;2022-09-06T09:42:48;25.30;;;23.90;;
8066;SDS011;4076;48.076;9.118;2022-09-06T09:45:32;24.17;;;22.87;;
8066;SDS011;4076;48.076;9.118;2022-09-06T09:48:14;17.00;;;15.80;;
8066;SDS011;4076;48.076;9.118;2022-09-06T09:50:47;13.77;;;12.47;;
8066;SDS011;4076;48.076;9.118;2022-09-06T09:53:14;10.50;;;9.33;;
8066;SDS011;4076;48.076;9.118;2022-09-06T09:55:42;9.00;;;8.10;;
8066;SDS011;4076;48.076;9.118;2022-09-06T09:58:26;8.60;;;5.70;;
8066;SDS011;4076;48.076;9.118;2022-09-06T10:01:39;9.60;;;7.37;;
8066;SDS011;4076;48.076;9.118;2022-09-06T10:03:49;13.00;;;8.80;;
8066;SDS011;4076;48.076;9.118;2022-09-06T10:06:16;11.17;;;9.93;;
8066;SDS011;4076;48.076;9.118;2022-09-06T10:08:50;10.87;;;9.77;;
8066;SDS011;4076;48.076;9.118;2022-09-06T10:11:35;9.67;;;8.57;;
8066;SDS011;4076;48.076;9.118;2022-09-06T10:14:09;11.10;;;7.00;;
8066;SDS011;4076;48.076;9.118;2022-09-06T10:16:45;11.20;;;7.50;;
8066;SDS011;4076;48.076;9.118;2022-09-06T10:19:20;10.40;;;7.70;;
8066;SDS011;4076;48.076;9.118;2022-09-06T10:23:09;10.60;;;6.33;;
8066;SDS011;4076;48.076;9.118;2022-09-06T10:36:37;19.80;;;16.60;;
8066;SDS011;4076;48.076;9.118;2022-09-06T10:39:47;16.90;;;15.40;;
8066;SDS011;4076;48.076;9.118;2022-09-06T10:42:00;17.60;;;15.93;;
8066;SDS011;4076;48.076;9.118;2022-09-06T10:58:27;17.83;;;12.70;;
8066;SDS011;4076;48.076;9.118;2022-09-06T11:00:58;15.03;;;12.00;;
8066;SDS011;4076;48.076;9.118;2022-09-06T11:06:01;14.73;;;11.27;;
8066;SDS011;4076;48.076;9.118;2022-09-06T11:08:48;17.20;;;11.47;;
8066;SDS011;4076;48.076;9.118;2022-09-06T11:11:44;20.43;;;10.93;;
8066;SDS011;4076;48.076;9.118;2022-09-06T11:14:14;13.60;;;8.57;;
8066;SDS011;4076;48.076;9.118;2022-09-06T11:16:47;16.00;;;10.40;;
8066;SDS011;4076;48.076;9.118;2022-09-06T11:19:20;12.17;;;9.60;;
8066;SDS011;4076;48.076;9.118;2022-09-06T11:26:59;14.00;;;10.50;;
8066;SDS011;4076;48.076;9.118;2022-09-06T11:29:49;14.27;;;12.43;;
8066;SDS011;4076;48.076;9.118;2022-09-06T11:32:31;14.53;;;11.40;;
8066;SDS011;4076;48.076;9.118;2022-09-06T11:35:05;17.43;;;15.57;;
8066;SDS011;4076;48.076;9.118;2022-09-06T11:37:38;16.27;;;14.73;;
8066;SDS011;4076;48.076;9.118;2022-09-06T11:45:17;15.67;;;14.17;;
8066;SDS011;4076;48.076;9.118;2022-09-06T11:47:48;18.43;;;16.50;;
8066;SDS011;4076;48.076;9.118;2022-09-06T11:55:37;12.03;;;8.37;;
8066;SDS011;4076;48.076;9.118;2022-09-06T11:58:09;12.53;;;7.00;;
8066;SDS011;4076;48.076;9.118;2022-09-06T12:00:42;14.93;;;10.33;;
8066;SDS011;4076;48.076;9.118;2022-09-06T12:03:10;11.13;;;5.93;;
8066;SDS011;4076;48.076;9.118;2022-09-06T12:06:22;13.07;;;7.20;;
8066;SDS011;4076;48.076;9.118;2022-09-06T12:08:52;13.90;;;8.03;;
8066;SDS011;4076;48.076;9.118;2022-09-06T12:24:54;15.03;;;10.87;;
8066;SDS011;4076;48.076;9.118;2022-09-06T12:27:27;12.13;;;9.37;;
8066;SDS011;4076;48.076;9.118;2022-09-06T12:30:00;10.47;;;8.20;;
8066;SDS011;4076;48.076;9.118;2022-09-06T12:32:30;10.63;;;7.47;;
8066;SDS011;4076;48.076;9.118;2022-09-06T12:35:15;13.50;;;8.80;;
8066;SDS011;4076;48.076;9.118;2022-09-06T12:37:48;10.53;;;8.50;;
8066;SDS011;4076;48.076;9.118;2022-09-06T12:40:18;13.40;;;10.60;;
8066;SDS011;4076;48.076;9.118;2022-09-06T12:42:47;14.03;;;12.23;;
8066;SDS011;4076;48.076;9.118;2022-09-06T12:45:15;15.10;;;13.70;;
8066;SDS011;4076;48.076;9.118;2022-09-06T12:47:42;14.27;;;12.60;;
8066;SDS011;4076;48.076;9.118;2022-09-06T12:50:10;15.30;;;13.70;;
8066;SDS011;4076;48.076;9.118;2022-09-06T12:52:43;17.10;;;15.60;;
8066;SDS011;4076;48.076;9.118;2022-09-06T12:58:04;17.00;;;15.50;;
8066;SDS011;4076;48.076;9.118;2022-09-06T13:00:48;19.17;;;17.47;;
8066;SDS011;4076;48.076;9.118;2022-09-06T13:06:07;16.23;;;14.63;;
8066;SDS011;4076;48.076;9.118;2022-09-06T13:08:38;15.50;;;13.90;;
8066;SDS011;4076;48.076;9.118;2022-09-06T13:11:10;16.10;;;14.80;;
8066;SDS011;4076;48.076;9.118;2022-09-06T13:13:45;16.77;;;15.00;;
8066;SDS011;4076;48.076;9.118;2022-09-06T13:16:22;17.10;;;15.33;;
8066;SDS011;4076;48.076;9.118;2022-09-06T13:18:50;16.17;;;14.70;;
8066;SDS011;4076;48.076;9.118;2022-09-06T13:21:50;15.90;;;14.50;;
8066;SDS011;4076;48.076;9.118;2022-09-06T13:26:57;14.67;;;13.17;;
8066;SDS011;4076;48.076;9.118;2022-09-06T13:29:24;17.90;;;16.40;;
8066;SDS011;4076;48.076;9.118;2022-09-06T13:31:55;17.87;;;14.57;;
8066;SDS011;4076;48.076;9.118;2022-09-06T13:34:25;19.97;;;18.27;;
8066;SDS011;4076;48.076;9.118;2022-09-06T13:36:54;22.00;;;16.20;;
8066;SDS011;4076;48.076;9.118;2022-09-06T13:41:59;16.60;;;14.90;;
8066;SDS011;4076;48.076;9.118;2022-09-06T13:44:30;15.20;;;13.13;;
8066;SDS011;4076;48.076;9.118;2022-09-06T13:46:57;17.27;;;15.57;;
8066;SDS011;4076;48.076;9.118;2022-09-06T13:49:23;14.67;;;13.10;;
8066;SDS011;4076;48.076;9.118;2022-09-06T13:51:50;14.57;;;13.00;;
8066;SDS011;4076;48.076;9.118;2022-09-06T13:54:17;18.30;;;13.43;;
8066;SDS011;4076;48.076;9.118;2022-09-06T13:56:42;13.73;;;11.07;;
8066;SDS011;4076;48.076;9.118;2022-09-06T13:59:09;15.23;;;12.27;;
8066;SDS011;4076;48.076;9.118;2022-09-06T14:01:36;15.13;;;10.27;;
8066;SDS011;4076;48.076;9.118;2022-09-06T14:04:03;17.90;;;10.90;;
8066;SDS011;4076;48.076;9.118;2022-09-06T14:06:30;19.83;;;12.70;;
8066;SDS011;4076;48.076;9.118;2022-09-06T14:08:55;13.80;;;11.57;;
8066;SDS011;4076;48.076;9.118;2022-09-06T14:11:21;13.53;;;9.67;;
8066;SDS011;4076;48.076;9.118;2022-09-06T14:13:48;10.93;;;8.80;;
8066;SDS011;4076;48.076;9.118;2022-09-06T14:16:13;13.40;;;9.77;;
8066;SDS011;4076;48.076;9.118;2022-09-06T14:18:39;12.70;;;11.17;;
8066;SDS011;4076;48.076;9.118;2022-09-06T14:21:05;12.83;;;10.53;;
8066;SDS011;4076;48.076;9.118;2022-09-06T14:23:31;13.87;;;11.30;;
8066;SDS011;4076;48.076;9.118;2022-09-06T14:25:58;11.13;;;9.93;;
8066;SDS011;4076;48.076;9.118;2022-09-06T14:28:25;12.33;;;10.97;;
8066;SDS011;4076;48.076;9.118;2022-09-06T14:30:51;11.43;;;10.27;;
8066;SDS011;4076;48.076;9.118;2022-09-06T14:33:20;11.10;;;9.97;;
8066;SDS011;4076;48.076;9.118;2022-09-06T14:35:46;9.97;;;8.70;;
8066;SDS011;4076;48.076;9.118;2022-09-06T14:38:12;10.37;;;8.97;;
8066;SDS011;4076;48.076;9.118;2022-09-06T14:40:38;10.43;;;9.00;;
8066;SDS011;4076;48.076;9.118;2022-09-06T14:43:05;10.37;;;8.53;;
8066;SDS011;4076;48.076;9.118;2022-09-06T14:45:34;9.97;;;7.73;;
8066;SDS011;4076;48.076;9.118;2022-09-06T14:48:00;8.33;;;5.77;;
8066;SDS011;4076;48.076;9.118;2022-09-06T14:50:26;10.03;;;7.40;;
8066;SDS011;4076;48.076;9.118;2022-09-06T14:52:52;9.97;;;8.93;;
8066;SDS011;4076;48.076;9.118;2022-09-06T14:55:17;9.53;;;7.07;;
8066;SDS011;4076;48.076;9.118;2022-09-06T14:57:43;10.20;;;4.97;;
8066;SDS011;4076;48.076;9.118;2022-09-06T15:00:10;8.90;;;4.07;;
8066;SDS011;4076;48.076;9.118;2022-09-06T15:02:36;9.23;;;4.30;;
8066;SDS011;4076;48.076;9.118;2022-09-06T15:05:01;9.03;;;4.67;;
8066;SDS011;4076;48.076;9.118;2022-09-06T15:07:28;7.87;;;4.87;;
8066;SDS011;4076;48.076;9.118;2022-09-06T15:09:53;9.80;;;6.07;;
8066;SDS011;4076;48.076;9.118;2022-09-06T15:12:19;10.00;;;8.63;;
8066;SDS011;4076;48.076;9.118;2022-09-06T15:14:45;11.00;;;9.03;;
8066;SDS011;4076;48.076;9.118;2022-09-06T15:17:10;10.20;;;8.33;;
8066;SDS011;4076;48.076;9.118;2022-09-06T15:19:37;11.40;;;10.20;;
8066;SDS011;4076;48.076;9.118;2022-09-06T15:22:04;10.30;;;8.77;;
8066;SDS011;4076;48.076;9.118;2022-09-06T15:24:30;10.70;;;8.40;;
8066;SDS011;4076;48.076;9.118;2022-09-06T15:26:56;10.10;;;6.87;;
8066;SDS011;4076;48.076;9.118;2022-09-06T15:29:23;10.80;;;7.73;;
8066;SDS011;4076;48.076;9.118;2022-09-06T15:31:49;12.10;;;8.50;;
8066;SDS011;4076;48.076;9.118;2022-09-06T15:34:18;7.77;;;5.33;;
8066;SDS011;4076;48.076;9.118;2022-09-06T15:36:44;9.47;;;6.47;;
8066;SDS011;4076;48.076;9.118;2022-09-06T15:39:10;8.53;;;4.10;;
8066;SDS011;4076;48.076;9.118;2022-09-06T15:41:37;13.23;;;5.70;;
8066;SDS011;4076;48.076;9.118;2022-09-06T15:44:14;7.63;;;4.07;;
8066;SDS011;4076;48.076;9.118;2022-09-06T15:49:18;9.23;;;4.90;;
8066;SDS011;4076;48.076;9.118;2022-09-06T15:51:46;11.20;;;5.23;;
8066;SDS011;4076;48.076;9.118;2022-09-06T15:54:12;8.30;;;5.97;;
8066;SDS011;4076;48.076;9.118;2022-09-06T15:56:40;10.30;;;7.60;;
8066;SDS011;4076;48.076;9.118;2022-09-06T15:59:06;9.60;;;7.03;;
8066;SDS011;4076;48.076;9.118;2022-09-06T16:01:33;10.77;;;6.47;;
8066;SDS011;4076;48.076;9.118;2022-09-06T16:03:59;10.30;;;7.77;;
8066;SDS011;4076;48.076;9.118;2022-09-06T16:06:39;10.20;;;6.67;;
8066;SDS011;4076;48.076;9.118;2022-09-06T16:09:09;9.80;;;5.37;;
8066;SDS011;4076;48.076;9.118;2022-09-06T16:11:43;12.20;;;6.30;;
8066;SDS011;4076;48.076;9.118;2022-09-06T16:14:11;9.40;;;5.40;;
8066;SDS011;4076;48.076;9.118;2022-09-06T16:16:38;14.33;;;4.93;;
8066;SDS011;4076;48.076;9.118;2022-09-06T16:19:04;9.93;;;4.63;;
8066;SDS011;4076;48.076;9.118;2022-09-06T16:21:31;8.50;;;3.90;;
8066;SDS011;4076;48.076;9.118;2022-09-06T16:24:01;10.63;;;3.37;;
8066;SDS011;4076;48.076;9.118;2022-09-06T16:26:30;9.00;;;3.77;;
8066;SDS011;4076;48.076;9.118;2022-09-06T16:28:58;9.80;;;3.40;;
8066;SDS011;4076;48.076;9.118;2022-09-06T16:31:24;8.67;;;3.80;;
8066;SDS011;4076;48.076;9.118;2022-09-06T16:33:51;9.80;;;4.20;;
8066;SDS011;4076;48.076;9.118;2022-09-06T16:36:18;8.13;;;3.97;;
8066;SDS011;4076;48.076;9.118;2022-09-06T16:38:45;8.47;;;3.43;;
8066;SDS011;4076;48.076;9.118;2022-09-06T16:41:19;8.70;;;3.03;;
8066;SDS011;4076;48.076;9.118;2022-09-06T16:44:06;8.40;;;3.10;;
8066;SDS011;4076;48.076;9.118;2022-09-06T16:46:33;9.97;;;3.50;;
8066;SDS011;4076;48.076;9.118;2022-09-06T16:48:59;8.23;;;2.60;;
8066;SDS011;4076;48.076;9.118;2022-09-06T16:51:26;8.93;;;3.10;;
8066;SDS011;4076;48.076;9.118;2022-09-06T16:53:53;8.80;;;2.63;;
8066;SDS011;4076;48.076;9.118;2022-09-06T16:56:20;8.30;;;2.53;;
8066;SDS011;4076;48.076;9.118;2022-09-06T16:58:52;7.80;;;2.23;;
8066;SDS011;4076;48.076;9.118;2022-09-06T17:01:19;8.23;;;2.70;;
8066;SDS011;4076;48.076;9.118;2022-09-06T17:03:46;9.47;;;4.60;;